Ichikawa, Japan
Current Conditions -  °F | °C
As of 2:00 AM on Friday 19 Dec 2014 (Local Time) from RJTT Reporting Station
Clear Clear  
Wind Chill: 32°   Ceiling: Unl
Heat Index: 39°   Visibility: 6mi
Dew Point: 16°   Wind: 10mph
Humidity: 39%   Direction: 310°NW
Pressure: 30.3"   Gusts: NA
Location:  35.72°N, 139.93°E
Report Text: RJTT 181700Z 31009KT CAVOK 04/M09 Q1026 NOSIG RMK A3030
Loading
Personal Weather Stations






























Interactive Weather Map New forecast layout! Learn more

10-Day Weather Forecast

Advertisements
Track Severe Weather on mobile